Johnson Bottom, Kentucky
Current Conditions -  °F | °C
As of 8:35 PM on Friday 19 Dec 2014 (Local Time) from KPBX Reporting Station
Clear Clear  
Wind Chill: 20°   Ceiling: Unl
Heat Index: 28°   Visibility: 10mi
Dew Point: 22°   Wind: 7mph
Humidity: 81%   Direction: 10°N
Pressure: 30.23"   Gusts: NA
Location:  37.5459°N, 82.1376°W
Report Text: KPBX 200135Z AUTO 01006KT 10SM CLR M02/M05 A3023 RMK AO2 T10251053
Loading
Personal Weather Stations






























Interactive Weather Map New forecast layout! Learn more

10-Day Weather Forecast

Advertisements
Track Severe Weather on mobile